createdAt,value
2019-05-16T00:00:58.670Z,0
2019-05-16T00:02:01.861Z,0
2019-05-16T00:03:03.962Z,0
2019-05-16T00:04:08.472Z,0
2019-05-16T00:05:10.835Z,0
2019-05-16T00:06:12.966Z,0
2019-05-16T00:07:15.050Z,0
2019-05-16T00:08:17.811Z,0
2019-05-16T00:09:19.978Z,0
2019-05-16T00:10:22.093Z,0
2019-05-16T00:11:24.262Z,0
2019-05-16T00:12:28.963Z,0
2019-05-16T00:13:31.534Z,0
2019-05-16T00:14:33.624Z,0
2019-05-16T00:15:37.700Z,0
2019-05-16T00:16:39.862Z,0
2019-05-16T00:17:41.963Z,0
2019-05-16T00:18:44.094Z,0
2019-05-16T00:19:49.005Z,0
2019-05-16T00:20:51.144Z,0
2019-05-16T00:21:53.507Z,0
2019-05-16T00:22:55.599Z,0
2019-05-16T00:24:00.837Z,0
2019-05-16T00:25:02.952Z,0
2019-05-16T00:26:05.110Z,0
2019-05-16T00:27:09.511Z,0
2019-05-16T00:28:12.262Z,0
2019-05-16T00:29:14.356Z,0
2019-05-16T00:30:19.608Z,0
2019-05-16T00:31:21.909Z,0
2019-05-16T00:32:24.402Z,0
2019-05-16T00:33:28.594Z,0
2019-05-16T00:34:30.816Z,0
2019-05-16T00:35:33.035Z,0
2019-05-16T00:36:35.126Z,0
2019-05-16T00:37:40.072Z,0
2019-05-16T00:38:42.315Z,0
2019-05-16T00:39:44.489Z,0
2019-05-16T00:40:48.596Z,0
2019-05-16T00:41:51.062Z,0
2019-05-16T00:42:53.647Z,0
2019-05-16T00:43:57.605Z,0
2019-05-16T00:44:59.853Z,0
2019-05-16T00:46:02.097Z,0
2019-05-16T00:47:04.802Z,0
2019-05-16T00:48:08.936Z,0
2019-05-16T00:49:11.434Z,0
2019-05-16T00:50:13.578Z,0
2019-05-16T00:51:18.123Z,0
2019-05-16T00:52:20.628Z,0
2019-05-16T00:53:23.458Z,0
2019-05-16T00:54:27.703Z,0
2019-05-16T00:55:29.994Z,0
2019-05-16T00:56:32.207Z,0
2019-05-16T00:57:34.463Z,0
2019-05-16T00:58:37.942Z,0
2019-05-16T00:59:40.218Z,0
2019-05-16T01:00:42.348Z,0
2019-05-16T01:01:44.447Z,0
2019-05-16T01:02:51.663Z,0
2019-05-16T01:03:53.759Z,0
2019-05-16T01:04:55.829Z,0
2019-05-16T01:06:00.746Z,0
2019-05-16T01:07:03.341Z,0
2019-05-16T01:08:07.834Z,0
2019-05-16T01:09:10.059Z,0
2019-05-16T01:10:12.181Z,0
2019-05-16T01:11:14.257Z,0
2019-05-16T01:12:17.780Z,0
2019-05-16T01:13:20.042Z,0
2019-05-16T01:14:22.118Z,0
2019-05-16T01:15:24.630Z,0
2019-05-16T01:16:27.611Z,0
2019-05-16T01:17:29.781Z,0
2019-05-16T01:18:31.883Z,0
2019-05-16T01:19:34.017Z,0
2019-05-16T01:20:38.438Z,0
2019-05-16T01:21:41.023Z,0
2019-05-16T01:22:43.284Z,0
2019-05-16T01:23:48.052Z,0
2019-05-16T01:24:50.707Z,0
2019-05-16T01:25:53.345Z,0
2019-05-16T01:26:57.752Z,0
2019-05-16T01:28:00.207Z,0
2019-05-16T01:29:02.765Z,0
2019-05-16T01:30:05.175Z,0
2019-05-16T01:31:08.548Z,0
2019-05-16T01:32:10.815Z,0
2019-05-16T01:33:13.060Z,0
2019-05-16T01:34:15.289Z,0
2019-05-16T01:35:20.612Z,0
2019-05-16T01:36:34.148Z,0
2019-05-16T01:37:43.090Z,0
2019-05-16T01:38:48.007Z,0
2019-05-16T01:39:50.738Z,0
2019-05-16T01:40:53.615Z,0
2019-05-16T01:41:58.513Z,0
2019-05-16T01:43:01.569Z,0
2019-05-16T01:44:04.586Z,0
2019-05-16T01:45:09.352Z,0
2019-05-16T01:46:12.467Z,0
2019-05-16T01:47:15.700Z,0
2019-05-16T01:48:20.785Z,0
2019-05-16T01:49:23.362Z,0
2019-05-16T01:50:25.649Z,0
2019-05-16T01:51:30.396Z,0
2019-05-16T01:52:33.571Z,0
2019-05-16T01:53:35.776Z,0
2019-05-16T01:54:40.568Z,0
2019-05-16T01:55:42.796Z,0
2019-05-16T01:56:47.926Z,0
2019-05-16T01:57:50.491Z,0
2019-05-16T01:58:53.245Z,0
2019-05-16T01:59:58.902Z,0
2019-05-16T02:01:11.806Z,0
2019-05-16T02:02:20.997Z,0
2019-05-16T02:03:23.603Z,0
2019-05-16T02:04:25.923Z,0
2019-05-16T02:05:30.690Z,0
2019-05-16T02:06:46.392Z,0
2019-05-16T02:08:00.299Z,0
2019-05-16T02:09:03.403Z,0
2019-05-16T02:10:08.515Z,0
2019-05-16T02:11:11.209Z,0
2019-05-16T02:12:14.253Z,0
2019-05-16T02:13:17.920Z,0
2019-05-16T02:14:20.230Z,0
2019-05-16T02:15:22.378Z,0
2019-05-16T02:16:24.480Z,0
2019-05-16T02:17:28.754Z,0
2019-05-16T02:18:31.086Z,0
2019-05-16T02:19:33.560Z,0
2019-05-16T02:20:35.706Z,0
2019-05-16T02:21:41.014Z,0
2019-05-16T02:22:43.423Z,0
2019-05-16T02:23:45.513Z,0
2019-05-16T02:24:52.677Z,0
2019-05-16T02:25:54.844Z,0
2019-05-16T02:26:59.743Z,0
2019-05-16T02:28:02.311Z,0
2019-05-16T02:29:04.450Z,0
2019-05-16T02:30:07.060Z,0
2019-05-16T02:31:15.252Z,0
2019-05-16T02:32:17.930Z,0
2019-05-16T02:33:24.237Z,0
2019-05-16T02:34:27.128Z,0
2019-05-16T02:35:32.669Z,0
2019-05-16T02:36:35.103Z,4
2019-05-16T02:37:41.670Z,4
2019-05-16T02:38:44.776Z,4
2019-05-16T02:39:47.307Z,0
2019-05-16T02:40:56.700Z,0
2019-05-16T02:42:01.002Z,4
2019-05-16T02:43:03.983Z,4
2019-05-16T02:44:06.484Z,4
2019-05-16T02:45:10.923Z,4
2019-05-16T02:46:13.419Z,4
2019-05-16T02:47:16.347Z,8
2019-05-16T02:48:22.821Z,8
2019-05-16T02:49:25.288Z,12
2019-05-16T02:50:31.247Z,12
2019-05-16T02:51:34.616Z,12
2019-05-16T02:52:36.932Z,12
2019-05-16T02:53:43.297Z,16
2019-05-16T02:54:45.626Z,20
2019-05-16T02:55:51.331Z,20
2019-05-16T02:56:54.855Z,20
2019-05-16T02:58:00.373Z,24
2019-05-16T02:59:03.515Z,28
2019-05-16T03:00:05.757Z,32
2019-05-16T03:01:10.753Z,36
2019-05-16T03:02:13.189Z,40
2019-05-16T03:03:15.387Z,44
2019-05-16T03:04:17.596Z,44
2019-05-16T03:05:23.415Z,52
2019-05-16T03:06:25.579Z,60
2019-05-16T03:07:37.396Z,68
2019-05-16T03:08:53.263Z,76
2019-05-16T03:09:55.702Z,84
2019-05-16T03:11:00.693Z,92
2019-05-16T03:12:03.283Z,104
2019-05-16T03:13:05.804Z,116
2019-05-16T03:14:11.108Z,132
2019-05-16T03:15:13.440Z,144
2019-05-16T03:16:15.798Z,160
2019-05-16T03:17:21.136Z,168
2019-05-16T03:18:24.003Z,188
2019-05-16T03:19:26.162Z,200
2019-05-16T03:20:32.618Z,216
2019-05-16T03:21:35.505Z,232
2019-05-16T03:22:40.581Z,244
2019-05-16T03:23:44.242Z,260
2019-05-16T03:24:46.656Z,264
2019-05-16T03:25:50.705Z,276
2019-05-16T03:26:53.367Z,284
2019-05-16T03:27:56.443Z,292
2019-05-16T03:29:00.908Z,300
2019-05-16T03:30:03.613Z,304
2019-05-16T03:31:06.868Z,308
2019-05-16T03:32:17.197Z,312
2019-05-16T03:33:34.475Z,312
2019-05-16T03:35:23.811Z,316
2019-05-16T03:36:27.560Z,308
2019-05-16T03:37:51.308Z,292
2019-05-16T03:39:10.483Z,284
2019-05-16T03:40:13.155Z,300
2019-05-16T03:41:15.950Z,344
2019-05-16T03:42:20.429Z,404
2019-05-16T03:43:23.179Z,436
2019-05-16T03:44:25.647Z,484
2019-05-16T03:45:31.444Z,548
2019-05-16T03:46:34.814Z,612
2019-05-16T03:47:37.353Z,672
2019-05-16T03:48:44.579Z,712
2019-05-16T03:49:47.468Z,744
2019-05-16T03:50:53.589Z,788
2019-05-16T03:51:56.553Z,812
2019-05-16T03:53:03.271Z,820
2019-05-16T03:54:05.479Z,804
2019-05-16T03:55:10.693Z,800
2019-05-16T03:56:14.183Z,788
2019-05-16T03:57:18.053Z,776
2019-05-16T03:58:23.836Z,768
2019-05-16T03:59:31.180Z,808
2019-05-16T04:00:34.054Z,840
2019-05-16T04:01:40.650Z,892
2019-05-16T04:02:45.586Z,928
2019-05-16T04:03:51.078Z,936
2019-05-16T04:04:54.181Z,980
2019-05-16T04:05:57.172Z,1008
2019-05-16T04:07:05.060Z,1020
2019-05-16T04:08:19.172Z,1032
2019-05-16T04:09:32.474Z,1064
2019-05-16T04:10:35.080Z,1108
2019-05-16T04:11:37.421Z,1128
2019-05-16T04:12:44.764Z,1120
2019-05-16T04:13:50.637Z,1084
2019-05-16T04:14:53.538Z,1056
2019-05-16T04:16:00.940Z,1064
2019-05-16T04:17:04.878Z,1092
2019-05-16T04:18:10.910Z,1120
2019-05-16T04:19:14.221Z,1140
2019-05-16T04:20:17.059Z,1156
2019-05-16T04:21:25.978Z,1188
2019-05-16T04:22:33.870Z,1192
2019-05-16T04:23:36.251Z,1224
2019-05-16T04:24:41.548Z,1236
2019-05-16T04:25:45.860Z,1220
2019-05-16T04:26:51.333Z,1204
2019-05-16T04:27:55.712Z,1132
2019-05-16T04:29:00.739Z,1056
2019-05-16T04:30:03.626Z,1044
2019-05-16T04:31:10.871Z,1072
2019-05-16T04:32:14.713Z,1176
2019-05-16T04:33:17.816Z,1380
2019-05-16T04:34:25.514Z,1680
2019-05-16T04:35:27.804Z,1844
2019-05-16T04:36:33.863Z,1876
2019-05-16T04:37:36.859Z,1892
2019-05-16T04:38:46.851Z,1892
2019-05-16T04:39:53.915Z,1980
2019-05-16T04:40:56.146Z,2040
2019-05-16T04:42:03.651Z,2044
2019-05-16T04:43:06.605Z,2020
2019-05-16T04:44:16.701Z,1908
2019-05-16T04:45:23.571Z,1848
2019-05-16T04:46:27.283Z,1820
2019-05-16T04:47:33.078Z,1804
2019-05-16T04:48:36.296Z,1768
2019-05-16T04:49:43.341Z,1676
2019-05-16T04:50:45.528Z,1524
2019-05-16T04:51:51.354Z,1396
2019-05-16T04:52:54.634Z,1312
2019-05-16T04:53:57.513Z,1280
2019-05-16T04:55:15.032Z,1308
2019-05-16T04:56:22.504Z,1400
2019-05-16T04:57:26.875Z,1572
2019-05-16T04:58:33.681Z,1768
2019-05-16T04:59:38.814Z,1916
2019-05-16T05:00:44.517Z,1952
2019-05-16T05:01:54.511Z,1948
2019-05-16T05:03:01.277Z,1932
2019-05-16T05:04:10.514Z,1976
2019-05-16T05:05:21.139Z,2004
2019-05-16T05:06:24.251Z,2228
2019-05-16T05:07:27.234Z,2652
2019-05-16T05:08:48.955Z,3192
2019-05-16T05:10:06.229Z,3128
2019-05-16T05:11:10.648Z,3100
2019-05-16T05:12:13.219Z,3256
2019-05-16T05:13:15.975Z,3660
2019-05-16T05:14:21.156Z,4032
2019-05-16T05:15:23.763Z,3876
2019-05-16T05:16:25.849Z,3612
2019-05-16T05:17:30.408Z,3184
2019-05-16T05:18:32.761Z,3008
2019-05-16T05:19:34.869Z,2944
2019-05-16T05:20:37.597Z,2872
2019-05-16T05:21:43.378Z,2744
2019-05-16T05:22:45.806Z,2500
2019-05-16T05:23:47.895Z,2308
2019-05-16T05:24:52.817Z,2392
2019-05-16T05:25:54.896Z,2572
2019-05-16T05:26:56.976Z,2752
2019-05-16T05:28:02.039Z,2820
2019-05-16T05:29:04.523Z,2836
2019-05-16T05:30:06.868Z,2924
2019-05-16T05:31:11.972Z,3164
2019-05-16T05:32:15.442Z,3380
2019-05-16T05:33:17.805Z,3516
2019-05-16T05:34:23.474Z,3836
2019-05-16T05:35:25.625Z,4384
2019-05-16T05:36:32.330Z,5240
2019-05-16T05:37:34.791Z,5920
2019-05-16T05:38:36.905Z,5932
2019-05-16T05:39:42.080Z,5872
2019-05-16T05:40:44.209Z,5704
2019-05-16T05:41:46.300Z,5856
2019-05-16T05:42:50.442Z,6176
2019-05-16T05:43:54.498Z,6624
2019-05-16T05:44:56.743Z,6908
2019-05-16T05:46:01.815Z,7148
2019-05-16T05:47:03.994Z,7572
2019-05-16T05:48:06.728Z,7944
2019-05-16T05:49:12.038Z,8216
2019-05-16T05:50:14.157Z,8348
2019-05-16T05:51:16.263Z,8244
2019-05-16T05:52:20.745Z,8264
2019-05-16T05:53:23.541Z,8276
2019-05-16T05:54:25.625Z,8368
2019-05-16T05:55:31.088Z,8128
2019-05-16T05:56:34.055Z,7756
2019-05-16T05:57:36.219Z,7652
2019-05-16T05:58:40.573Z,7584
2019-05-16T05:59:43.456Z,7584
2019-05-16T06:00:46.627Z,7748
2019-05-16T06:01:53.691Z,7840
2019-05-16T06:02:55.858Z,7864
2019-05-16T06:03:59.762Z,7748
2019-05-16T06:05:01.983Z,7524
2019-05-16T06:06:04.753Z,7100
2019-05-16T06:07:07.171Z,7044
2019-05-16T06:08:12.294Z,7268
2019-05-16T06:09:26.047Z,7776
2019-05-16T06:10:35.043Z,8624
2019-05-16T06:11:37.399Z,9504
2019-05-16T06:12:42.613Z,9952
2019-05-16T06:13:45.526Z,10056
2019-05-16T06:14:50.324Z,10040
2019-05-16T06:15:52.593Z,9692
2019-05-16T06:16:54.715Z,9436
2019-05-16T06:18:00.045Z,9268
2019-05-16T06:19:02.593Z,9124
2019-05-16T06:20:04.721Z,9040
2019-05-16T06:21:11.190Z,9168
2019-05-16T06:22:13.977Z,8952
2019-05-16T06:23:16.078Z,8900
2019-05-16T06:24:20.009Z,9172
2019-05-16T06:25:23.418Z,9048
2019-05-16T06:26:26.153Z,8724
2019-05-16T06:27:30.187Z,8856
2019-05-16T06:28:32.826Z,9588
2019-05-16T06:29:34.952Z,10020
2019-05-16T06:30:37.036Z,10692
2019-05-16T06:31:42.191Z,10768
2019-05-16T06:32:44.284Z,10012
2019-05-16T06:33:46.366Z,9308
2019-05-16T06:34:50.555Z,8492
2019-05-16T06:35:53.149Z,7964
2019-05-16T06:36:55.263Z,7800
2019-05-16T06:37:57.365Z,8048
2019-05-16T06:39:02.203Z,8828
2019-05-16T06:40:04.321Z,9432
2019-05-16T06:41:06.398Z,9872
2019-05-16T06:42:09.781Z,10472
2019-05-16T06:43:12.708Z,10724
2019-05-16T06:44:15.143Z,11008
2019-05-16T06:45:17.225Z,11412
2019-05-16T06:46:21.977Z,11308
2019-05-16T06:47:24.104Z,10520
2019-05-16T06:48:26.483Z,8992
2019-05-16T06:49:30.339Z,7988
2019-05-16T06:50:32.559Z,7108
2019-05-16T06:51:34.700Z,6752
2019-05-16T06:52:36.769Z,6004
2019-05-16T06:53:40.417Z,5252
2019-05-16T06:54:42.648Z,4840
2019-05-16T06:55:44.732Z,4552
2019-05-16T06:56:46.851Z,4136
2019-05-16T06:57:52.037Z,3560
2019-05-16T06:58:54.123Z,3032
2019-05-16T06:59:56.206Z,2740
2019-05-16T07:01:00.287Z,2588
2019-05-16T07:02:06.323Z,2516
2019-05-16T07:03:10.260Z,2516
2019-05-16T07:04:15.000Z,2580
2019-05-16T07:05:17.101Z,2596
2019-05-16T07:06:46.265Z,2320
2019-05-16T07:08:05.482Z,2256
2019-05-16T07:09:10.302Z,2448
2019-05-16T07:10:13.390Z,2416
2019-05-16T07:11:15.784Z,2500
2019-05-16T07:12:20.228Z,2580
2019-05-16T07:13:22.419Z,2564
2019-05-16T07:14:28.091Z,2484
2019-05-16T07:15:33.398Z,2444
2019-05-16T07:16:35.956Z,2500
2019-05-16T07:17:41.871Z,2576
2019-05-16T07:18:44.066Z,2588
2019-05-16T07:19:46.580Z,2712
2019-05-16T07:20:51.774Z,2912
2019-05-16T07:21:54.695Z,3012
2019-05-16T07:22:56.897Z,3328
2019-05-16T07:24:00.115Z,3572
2019-05-16T07:25:02.401Z,3856
2019-05-16T07:26:04.998Z,3984
2019-05-16T07:27:08.918Z,4088
2019-05-16T07:28:14.835Z,4056
2019-05-16T07:29:17.063Z,3804
2019-05-16T07:30:22.397Z,3712
2019-05-16T07:31:24.618Z,3860
2019-05-16T07:32:26.811Z,4252
2019-05-16T07:33:32.311Z,4672
2019-05-16T07:34:34.552Z,5536
2019-05-16T07:35:36.751Z,7104
2019-05-16T07:36:41.512Z,8208
2019-05-16T07:37:44.085Z,9480
2019-05-16T07:38:46.623Z,10996
2019-05-16T07:39:52.099Z,11864
2019-05-16T07:40:54.258Z,11744
2019-05-16T07:41:56.894Z,10752
2019-05-16T07:43:02.061Z,9212
2019-05-16T07:44:04.265Z,7728
2019-05-16T07:45:06.476Z,6160
2019-05-16T07:46:12.296Z,5184
2019-05-16T07:47:14.486Z,5636
2019-05-16T07:48:17.089Z,6772
2019-05-16T07:49:23.930Z,6440
2019-05-16T07:50:26.138Z,5804
2019-05-16T07:51:31.304Z,5188
2019-05-16T07:52:36.215Z,4676
2019-05-16T07:53:42.032Z,4696
2019-05-16T07:54:44.197Z,4392
2019-05-16T07:55:46.770Z,4080
2019-05-16T07:56:57.064Z,4436
2019-05-16T07:58:24.649Z,6416
2019-05-16T07:59:26.861Z,8260
2019-05-16T08:00:47.246Z,10124
2019-05-16T08:02:14.664Z,9464
2019-05-16T08:03:16.983Z,8908
2019-05-16T08:04:22.443Z,8152
2019-05-16T08:05:24.620Z,8188
2019-05-16T08:06:26.860Z,9352
2019-05-16T08:07:30.700Z,10584
2019-05-16T08:08:35.749Z,10484
2019-05-16T08:09:39.704Z,11372
2019-05-16T08:10:46.480Z,13672
2019-05-16T08:11:53.352Z,15944
2019-05-16T08:12:55.542Z,18752
2019-05-16T08:13:57.788Z,23296
2019-05-16T08:15:02.933Z,29536
2019-05-16T08:16:05.117Z,35936
2019-05-16T08:17:10.274Z,31072
2019-05-16T08:18:12.984Z,29440
2019-05-16T08:19:15.210Z,32832
2019-05-16T08:20:17.694Z,33504
2019-05-16T08:21:27.527Z,56000
2019-05-16T08:22:32.848Z,75488
2019-05-16T08:23:35.150Z,32544
2019-05-16T08:24:40.050Z,35360
2019-05-16T08:25:42.418Z,30304
2019-05-16T08:26:44.749Z,24768
2019-05-16T08:27:46.940Z,20032
2019-05-16T08:28:50.215Z,14828
2019-05-16T08:33:55.554Z,16768
2019-05-16T08:35:00.981Z,16920
2019-05-16T08:36:08.009Z,15616
2019-05-16T08:39:14.916Z,11768
2019-05-16T08:40:20.606Z,11956
2019-05-16T08:41:24.501Z,11356
2019-05-16T08:42:26.684Z,10092
2019-05-16T08:43:31.532Z,10152
2019-05-16T08:44:35.084Z,12492
2019-05-16T08:45:41.555Z,14232
2019-05-16T08:46:44.091Z,15196
2019-05-16T08:47:54.330Z,14840
2019-05-16T08:48:56.524Z,14372
2019-05-16T08:50:03.018Z,14220
2019-05-16T08:51:05.242Z,13396
2019-05-16T08:52:07.599Z,12192
2019-05-16T08:53:14.012Z,11080
2019-05-16T08:54:17.198Z,10288
2019-05-16T08:55:23.131Z,9512
2019-05-16T08:56:26.542Z,9308
2019-05-16T08:57:34.106Z,9232
2019-05-16T08:58:36.810Z,9540
2019-05-16T08:59:42.994Z,10228
2019-05-16T09:00:45.357Z,10332
2019-05-16T09:01:56.652Z,10136
2019-05-16T09:03:06.369Z,8796
2019-05-16T09:04:11.868Z,7660
2019-05-16T09:05:15.148Z,7664
2019-05-16T09:06:22.458Z,7636
2019-05-16T09:07:25.776Z,7476
2019-05-16T09:08:33.477Z,7108
2019-05-16T09:09:43.911Z,7160
2019-05-16T09:11:15.839Z,7820
2019-05-16T09:12:51.359Z,8008
2019-05-16T09:13:53.652Z,7956
2019-05-16T09:15:00.485Z,8152
2019-05-16T09:16:03.992Z,6796
2019-05-16T09:17:12.005Z,4872
2019-05-16T09:18:17.744Z,5288
2019-05-16T09:19:23.531Z,5952
2019-05-16T09:20:29.881Z,6176
2019-05-16T09:21:33.665Z,7016
2019-05-16T09:22:40.393Z,8108
2019-05-16T09:23:46.947Z,9580
2019-05-16T09:24:50.659Z,10604
2019-05-16T09:25:54.088Z,10284
2019-05-16T09:27:01.443Z,9856
2019-05-16T09:28:16.791Z,9524
2019-05-16T09:29:20.806Z,10080
2019-05-16T09:30:27.406Z,10560
2019-05-16T09:31:31.928Z,10288
2019-05-16T09:32:36.942Z,9476
2019-05-16T09:33:49.929Z,8192
2019-05-16T09:34:56.961Z,7660
2019-05-16T09:36:01.356Z,6672
2019-05-16T09:37:08.158Z,6136
2019-05-16T09:38:11.888Z,6240
2019-05-16T09:39:21.261Z,6120
2019-05-16T09:40:27.451Z,5728
2019-05-16T09:41:44.867Z,5892
2019-05-16T09:43:02.335Z,6652
2019-05-16T09:44:09.262Z,6792
2019-05-16T09:45:16.950Z,6912
2019-05-16T09:46:20.996Z,6956
2019-05-16T09:47:27.796Z,6996
2019-05-16T09:48:32.183Z,6252
2019-05-16T09:49:37.003Z,5740
2019-05-16T09:50:40.111Z,5428
2019-05-16T09:51:43.566Z,5444
2019-05-16T09:52:49.478Z,5380
2019-05-16T09:53:53.288Z,5924
2019-05-16T09:54:58.877Z,5856
2019-05-16T09:56:03.267Z,6348
2019-05-16T09:57:09.881Z,7244
2019-05-16T09:58:13.918Z,8212
2019-05-16T09:59:21.454Z,10172
2019-05-16T10:00:26.862Z,9900
2019-05-16T10:01:31.039Z,8772
2019-05-16T10:02:36.536Z,8360
2019-05-16T10:03:40.952Z,9132
2019-05-16T10:04:47.195Z,8956
2019-05-16T10:05:51.397Z,10292
2019-05-16T10:06:58.296Z,9504
2019-05-16T10:08:02.056Z,9596
2019-05-16T10:09:06.400Z,8808
2019-05-16T10:10:10.484Z,7932
2019-05-16T10:11:18.050Z,9200
2019-05-16T10:12:22.551Z,10700
2019-05-16T10:13:30.479Z,9464
2019-05-16T10:14:37.626Z,10312
2019-05-16T10:15:41.425Z,10596
2019-05-16T10:16:47.558Z,12424
2019-05-16T10:17:51.299Z,10496
2019-05-16T10:18:56.728Z,12256
2019-05-16T10:20:01.304Z,14244
2019-05-16T10:21:07.954Z,13700
2019-05-16T10:22:13.154Z,13352
2019-05-16T10:23:20.722Z,13240
2019-05-16T10:24:26.816Z,9372
2019-05-16T10:25:31.963Z,14340
2019-05-16T10:26:37.174Z,14096
2019-05-16T10:27:40.611Z,13204
2019-05-16T10:28:46.383Z,11184
2019-05-16T10:29:50.555Z,9744
2019-05-16T10:30:56.805Z,7660
2019-05-16T10:31:59.915Z,6120
2019-05-16T10:33:03.327Z,7304
2019-05-16T10:34:09.977Z,7660
2019-05-16T10:35:14.988Z,6872
2019-05-16T10:36:21.489Z,7612
2019-05-16T10:37:26.830Z,7528
2019-05-16T10:38:29.893Z,7696
2019-05-16T10:39:33.398Z,7404
2019-05-16T10:40:39.607Z,6944
2019-05-16T10:41:43.637Z,6016
2019-05-16T10:42:50.662Z,6632
2019-05-16T10:43:56.679Z,5808
2019-05-16T10:45:00.544Z,7384
2019-05-16T10:46:06.297Z,7084
2019-05-16T10:47:10.821Z,5740
2019-05-16T10:48:17.501Z,7716
2019-05-16T10:49:34.177Z,5660
2019-05-16T10:50:47.047Z,5168
2019-05-16T10:51:51.259Z,5396
2019-05-16T10:53:13.611Z,4944
2019-05-16T10:55:20.893Z,5484
2019-05-16T10:56:25.496Z,5692
2019-05-16T10:57:29.968Z,6100
2019-05-16T10:58:37.872Z,6484
2019-05-16T11:02:28.281Z,7324
2019-05-16T11:03:32.314Z,7388
2019-05-16T11:04:50.614Z,7620
2019-05-16T11:06:41.364Z,7316
2019-05-16T11:07:47.742Z,5968
2019-05-16T11:08:59.700Z,5672
2019-05-16T11:10:04.579Z,6024
2019-05-16T11:11:11.304Z,6232
2019-05-16T11:12:17.345Z,6592
2019-05-16T11:13:52.959Z,7580
2019-05-16T11:14:56.858Z,8360
2019-05-16T11:16:00.721Z,9072
2019-05-16T11:17:07.229Z,9804
2019-05-16T11:18:21.908Z,10544
2019-05-16T11:19:29.147Z,10884
2019-05-16T11:20:33.366Z,11012
2019-05-16T11:21:39.776Z,11176
2019-05-16T11:22:44.079Z,11340
2019-05-16T11:23:51.259Z,11400
2019-05-16T11:24:56.530Z,11512
2019-05-16T11:26:01.175Z,11596
2019-05-16T11:27:07.464Z,11956
2019-05-16T11:28:11.735Z,12464
2019-05-16T11:29:16.641Z,13588
2019-05-16T11:30:20.767Z,15536
2019-05-16T11:31:26.669Z,17048
2019-05-16T11:32:31.882Z,18880
2019-05-16T11:33:36.950Z,20128
2019-05-16T11:34:41.917Z,21952
2019-05-16T11:35:47.519Z,22656
2019-05-16T11:36:53.088Z,22496
2019-05-16T11:38:01.039Z,22560
2019-05-16T11:39:09.267Z,23168
2019-05-16T11:40:12.984Z,25344
2019-05-16T11:41:20.441Z,30432
2019-05-16T11:42:24.739Z,33728
2019-05-16T11:43:31.503Z,30944
2019-05-16T11:44:38.017Z,28608
2019-05-16T11:45:42.223Z,29152
2019-05-16T11:46:49.227Z,30976
2019-05-16T11:47:54.150Z,27648
2019-05-16T11:49:00.393Z,27040
2019-05-16T11:50:04.384Z,26944
2019-05-16T11:51:11.556Z,26304
2019-05-16T11:52:17.810Z,26016
2019-05-16T11:53:21.678Z,25696
2019-05-16T11:54:30.235Z,26336
2019-05-16T11:55:35.658Z,27456
2019-05-16T11:57:06.864Z,29056
2019-05-16T11:58:11.434Z,28736
2019-05-16T11:59:16.187Z,29312
2019-05-16T12:00:20.431Z,30496
2019-05-16T12:01:27.452Z,28192
2019-05-16T12:02:32.297Z,27424
2019-05-16T12:03:46.763Z,24256
2019-05-16T12:04:50.773Z,21120
2019-05-16T12:05:57.636Z,19488
2019-05-16T12:07:01.847Z,18464
2019-05-16T12:08:07.581Z,17412
2019-05-16T12:09:12.122Z,18112
2019-05-16T12:10:16.368Z,18272
2019-05-16T12:11:20.183Z,17888
2019-05-16T12:12:26.947Z,17004
2019-05-16T12:13:33.019Z,16412
2019-05-16T12:14:41.278Z,16548
2019-05-16T12:15:46.132Z,16656
2019-05-16T12:16:50.224Z,16560
2019-05-16T12:18:01.476Z,16068
2019-05-16T12:19:11.417Z,14756
2019-05-16T12:20:19.148Z,13812
2019-05-16T12:21:22.964Z,13140
2019-05-16T12:22:30.214Z,12720
2019-05-16T12:23:37.201Z,12608
2019-05-16T12:24:41.725Z,11760
2019-05-16T12:25:47.341Z,10940
2019-05-16T12:26:51.763Z,11256
2019-05-16T12:27:56.848Z,11928
2019-05-16T12:29:01.421Z,12396
2019-05-16T12:30:12.832Z,12260
2019-05-16T12:31:21.752Z,12868
2019-05-16T12:32:28.070Z,12768
2019-05-16T12:33:36.983Z,12308
2019-05-16T12:34:43.282Z,11968
2019-05-16T12:35:50.217Z,11592
2019-05-16T12:36:56.558Z,11368
2019-05-16T12:38:01.898Z,11284
2019-05-16T12:39:10.785Z,11268
2019-05-16T12:40:19.433Z,11880
2019-05-16T12:41:28.465Z,12448
2019-05-16T12:42:36.466Z,12956
2019-05-16T12:43:48.463Z,13468
2019-05-16T12:45:00.575Z,14220
2019-05-16T12:46:07.413Z,14792
2019-05-16T12:47:12.084Z,15268
2019-05-16T12:48:20.066Z,15672
2019-05-16T12:49:25.738Z,15696
2019-05-16T12:50:30.384Z,16144
2019-05-16T12:51:40.628Z,16340
2019-05-16T12:52:47.326Z,15956
2019-05-16T12:53:52.225Z,15316
2019-05-16T12:55:00.231Z,14452
2019-05-16T12:56:05.914Z,13780
2019-05-16T12:57:10.961Z,13292
2019-05-16T12:58:20.045Z,12500
2019-05-16T12:59:49.894Z,11516
2019-05-16T13:00:59.069Z,11228
2019-05-16T13:02:02.636Z,11492
2019-05-16T13:03:11.122Z,12200
2019-05-16T13:04:18.792Z,13096
2019-05-16T13:05:26.710Z,13676
2019-05-16T13:06:31.355Z,13408
2019-05-16T13:07:37.652Z,12936
2019-05-16T13:08:42.525Z,12708
2019-05-16T13:09:50.167Z,12324
2019-05-16T13:10:57.111Z,10324
2019-05-16T13:12:03.764Z,9124
2019-05-16T13:13:11.387Z,8984
2019-05-16T13:14:16.879Z,9152
2019-05-16T13:15:21.126Z,9776
2019-05-16T13:16:28.060Z,10740
2019-05-16T13:17:33.259Z,11472
2019-05-16T13:18:41.315Z,11772
2019-05-16T13:19:49.801Z,12068
2019-05-16T13:20:57.129Z,11076
2019-05-16T13:22:02.835Z,8236
2019-05-16T13:23:14.637Z,8032
2019-05-16T13:24:27.638Z,8460
2019-05-16T13:25:33.667Z,7564
2019-05-16T13:26:42.758Z,7720
2019-05-16T13:27:50.488Z,7952
2019-05-16T13:28:57.743Z,8160
2019-05-16T13:30:03.843Z,7060
2019-05-16T13:31:13.075Z,7192
2019-05-16T13:32:21.175Z,6856
2019-05-16T13:33:27.099Z,6188
2019-05-16T13:34:32.847Z,5760
2019-05-16T13:35:42.574Z,5720
2019-05-16T13:36:51.336Z,6332
2019-05-16T13:37:57.940Z,6140
2019-05-16T13:39:03.189Z,5800
2019-05-16T13:40:12.186Z,5568
2019-05-16T13:41:18.186Z,6140
2019-05-16T13:42:26.848Z,5196
2019-05-16T13:43:33.360Z,5612
2019-05-16T13:44:40.399Z,5804
2019-05-16T13:45:43.961Z,5192
2019-05-16T13:46:51.100Z,5088
2019-05-16T13:48:02.038Z,5108
2019-05-16T13:49:11.793Z,6596
2019-05-16T13:50:23.666Z,6660
2019-05-16T13:51:32.589Z,7336
2019-05-16T13:52:38.752Z,6672
2019-05-16T13:53:43.994Z,6756
2019-05-16T13:54:51.387Z,7372
2019-05-16T13:57:19.902Z,5648
2019-05-16T13:58:24.247Z,5180
2019-05-16T13:59:31.511Z,5532
2019-05-16T14:00:38.665Z,4884
2019-05-16T14:01:45.173Z,5012
2019-05-16T14:02:50.108Z,4892
2019-05-16T14:03:57.225Z,5756
2019-05-16T14:05:04.232Z,8340
2019-05-16T14:06:13.748Z,7544
2019-05-16T14:07:23.410Z,7096
2019-05-16T14:08:29.803Z,7204
2019-05-16T14:09:37.745Z,7808
2019-05-16T14:10:43.626Z,8632
2019-05-16T14:11:56.304Z,8336
2019-05-16T14:13:02.737Z,6656
2019-05-16T14:14:10.635Z,5892
2019-05-16T14:15:39.187Z,7372
2019-05-16T14:16:46.902Z,7372
2019-05-16T14:17:52.868Z,7544
2019-05-16T14:19:01.428Z,8508
2019-05-16T14:20:14.386Z,10172
2019-05-16T14:21:23.871Z,10048
2019-05-16T14:22:28.811Z,10004
2019-05-16T14:23:37.901Z,9868
2019-05-16T14:24:43.699Z,10996
2019-05-16T14:25:54.109Z,12996
2019-05-16T14:27:01.971Z,11984
2019-05-16T14:28:09.859Z,9868
2019-05-16T14:29:14.332Z,8752
2019-05-16T14:30:22.447Z,8668
2019-05-16T14:31:31.150Z,8536
2019-05-16T14:32:42.776Z,8892
2019-05-16T14:33:56.754Z,7516
2019-05-16T14:35:00.942Z,3608
2019-05-16T14:36:07.271Z,2188
2019-05-16T14:37:13.183Z,4684
2019-05-16T14:38:21.058Z,8664
2019-05-16T14:39:28.290Z,8036
2019-05-16T14:40:33.578Z,6236
2019-05-16T14:41:42.632Z,7468
2019-05-16T14:42:52.225Z,6452
2019-05-16T14:44:00.840Z,4652
2019-05-16T14:45:11.929Z,5856
2019-05-16T14:46:20.649Z,7252
2019-05-16T14:47:29.622Z,6980
2019-05-16T14:48:33.716Z,6704
2019-05-16T14:49:40.717Z,6268
2019-05-16T14:50:46.899Z,6840
2019-05-16T14:51:52.114Z,6420
2019-05-16T14:53:00.549Z,7280
2019-05-16T14:54:07.367Z,10628
2019-05-16T14:55:11.683Z,8576
2019-05-16T14:56:15.982Z,10476
2019-05-16T14:57:22.300Z,10428